Time;durP1;ratioP1;P1;durP2;ratioP2;P2;SDS_P1;SDS_P2;PMS_P1;PMS_P2;Temp;Humidity;BMP_temperature;BMP_pressure;BME280_temperature;BME280_humidity;BME280_pressure;Samples;Min_cycle;Max_cycle;Signal;HPM_P1;HPM_P2
2021/01/28 00:00:16;;;;;;;19.37;9.80;;;-1.90;99.90;;;;;;4177036;28;20319;-49
2021/01/28 00:02:17;;;;;;;15.63;7.93;;;-1.90;99.90;;;;;;4176928;28;20746;-49
2021/01/28 00:04:19;;;;;;;15.63;8.13;;;-2.00;99.90;;;;;;4178320;28;20312;-49
2021/01/28 00:06:20;;;;;;;17.63;8.27;;;-1.90;99.90;;;;;;4177014;28;20328;-55
2021/01/28 00:08:21;;;;;;;16.00;8.03;;;-1.90;99.90;;;;;;4178168;28;20919;-52
2021/01/28 00:10:23;;;;;;;19.50;9.27;;;-1.90;99.90;;;;;;4177499;28;20290;-48
2021/01/28 00:12:24;;;;;;;17.50;9.07;;;-1.90;99.90;;;;;;4177723;28;20294;-46
2021/01/28 00:14:25;;;;;;;18.23;8.67;;;-1.90;99.90;;;;;;4177806;28;20274;-52
2021/01/28 00:16:27;;;;;;;17.37;9.53;;;-1.90;99.90;;;;;;4177327;28;20281;-47
2021/01/28 00:18:28;;;;;;;20.47;10.73;;;-1.90;99.90;;;;;;4177286;28;20741;-51
2021/01/28 00:20:42;;;;;;;18.93;9.07;;;-1.90;99.90;;;;;;4177540;28;20282;-47
2021/01/28 00:22:44;;;;;;;17.63;9.30;;;-1.90;99.90;;;;;;4177448;28;20739;-49
2021/01/28 00:24:45;;;;;;;17.30;9.30;;;-1.90;99.90;;;;;;4176827;28;20308;-51
2021/01/28 00:26:46;;;;;;;19.17;9.53;;;-1.90;99.90;;;;;;4178063;28;20270;-49
2021/01/28 00:28:47;;;;;;;21.03;10.03;;;-1.90;99.90;;;;;;4177212;28;20360;-44
2021/01/28 00:30:51;;;;;;;20.20;10.10;;;-1.90;99.90;;;;;;4177712;28;20270;-46
2021/01/28 00:32:52;;;;;;;17.90;9.97;;;-1.80;99.90;;;;;;4177265;28;20262;-47
2021/01/28 00:34:54;;;;;;;19.40;10.43;;;-1.80;99.90;;;;;;4177982;28;20730;-49
2021/01/28 00:36:55;;;;;;;19.60;9.43;;;-1.80;99.90;;;;;;4177154;28;20363;-50
2021/01/28 00:38:56;;;;;;;20.53;10.53;;;-1.80;99.90;;;;;;4177769;28;20271;-48
2021/01/28 00:40:59;;;;;;;19.20;9.93;;;-1.80;99.90;;;;;;4176878;28;20258;-44
2021/01/28 00:43:00;;;;;;;20.73;10.37;;;-1.70;99.90;;;;;;4177987;28;20274;-46
2021/01/28 00:45:01;;;;;;;21.63;10.50;;;-1.70;99.90;;;;;;4177279;28;20278;-49
2021/01/28 00:47:03;;;;;;;19.17;10.10;;;-1.70;99.90;;;;;;4177863;28;20258;-50
2021/01/28 00:49:04;;;;;;;19.90;10.30;;;-1.70;99.90;;;;;;4177360;28;20630;-51
2021/01/28 00:51:05;;;;;;;20.17;10.23;;;-1.70;99.90;;;;;;4174845;28;20270;-54
2021/01/28 00:53:08;;;;;;;21.13;10.60;;;-1.70;99.90;;;;;;4174571;28;20255;-46
2021/01/28 00:55:11;;;;;;;23.60;10.67;;;-1.70;99.90;;;;;;4174957;28;20262;-44
2021/01/28 00:57:12;;;;;;;20.80;10.20;;;-1.70;99.90;;;;;;4175004;28;20316;-48
2021/01/28 00:59:13;;;;;;;17.27;9.40;;;-1.70;99.90;;;;;;4174539;28;20274;-44
2021/01/28 01:01:14;;;;;;;20.40;10.70;;;-1.70;99.90;;;;;;4174684;28;20316;-46
2021/01/28 01:03:21;;;;;;;19.00;10.33;;;-1.70;99.90;;;;;;4174338;28;20704;-48
2021/01/28 01:05:26;;;;;;;19.20;10.10;;;-1.70;99.90;;;;;;4175039;28;20824;-45
2021/01/28 01:07:28;;;;;;;19.17;10.17;;;-1.60;99.90;;;;;;4173977;28;20274;-46
2021/01/28 01:09:29;;;;;;;19.53;9.70;;;-1.70;99.90;;;;;;4174956;28;20290;-48
2021/01/28 01:11:30;;;;;;;20.13;10.93;;;-1.60;99.90;;;;;;4173904;28;20316;-49
2021/01/28 01:13:35;;;;;;;17.37;9.60;;;-1.70;99.90;;;;;;4175040;28;20321;-47
2021/01/28 01:15:37;;;;;;;20.30;10.47;;;-1.60;99.90;;;;;;4174097;28;20258;-49
2021/01/28 01:17:38;;;;;;;21.13;9.67;;;-1.60;99.90;;;;;;4174671;28;20348;-53
2021/01/28 01:19:39;;;;;;;17.70;9.60;;;-1.60;99.90;;;;;;4173839;28;20328;-45
2021/01/28 01:21:40;;;;;;;18.10;9.27;;;-1.60;99.90;;;;;;4174210;28;20273;-49
2021/01/28 01:23:42;;;;;;;20.97;9.40;;;-1.60;99.90;;;;;;4174266;28;20826;-48
2021/01/28 01:25:43;;;;;;;15.67;9.00;;;-1.70;99.90;;;;;;4174565;28;20286;-50
2021/01/28 01:27:45;;;;;;;17.60;9.97;;;-1.70;99.90;;;;;;4174119;28;20266;-44
2021/01/28 01:29:46;;;;;;;18.20;9.13;;;-1.70;99.90;;;;;;4173738;28;20372;-47
2021/01/28 01:31:47;;;;;;;20.13;10.17;;;-1.70;99.90;;;;;;4174372;28;20278;-51
2021/01/28 01:33:48;;;;;;;17.57;9.30;;;-1.70;99.90;;;;;;4174255;28;20270;-47
2021/01/28 01:35:49;;;;;;;15.73;8.93;;;-1.70;99.90;;;;;;4174122;28;20259;-51
2021/01/28 01:37:53;;;;;;;20.03;9.50;;;-1.70;99.90;;;;;;4173300;28;20269;-46
2021/01/28 01:39:54;;;;;;;18.10;8.27;;;-1.70;99.90;;;;;;4174330;28;20292;-45
2021/01/28 01:41:56;;;;;;;16.40;9.00;;;-1.70;99.90;;;;;;4173225;28;20792;-44
2021/01/28 01:43:59;;;;;;;13.40;8.10;;;-1.70;99.90;;;;;;4174288;28;20290;-44
2021/01/28 01:46:12;;;;;;;16.30;8.67;;;-1.70;99.90;;;;;;4173329;28;20723;-48
2021/01/28 01:48:18;;;;;;;19.37;9.27;;;-1.70;99.90;;;;;;4174055;28;20811;-51
2021/01/28 01:50:35;;;;;;;15.33;8.40;;;-1.70;99.90;;;;;;4172824;28;20898;-50
2021/01/28 01:52:36;;;;;;;19.33;8.80;;;-1.70;99.90;;;;;;4173819;28;20270;-47
2021/01/28 01:54:38;;;;;;;17.83;8.87;;;-1.70;99.90;;;;;;4172810;28;20335;-45
2021/01/28 01:56:43;;;;;;;17.03;8.47;;;-1.70;99.90;;;;;;4173692;28;20312;-45
2021/01/28 01:59:03;;;;;;;18.73;8.77;;;-1.70;99.90;;;;;;4173272;28;20685;-48
2021/01/28 02:01:04;;;;;;;17.60;8.10;;;-1.70;99.90;;;;;;4174248;28;20286;-47
2021/01/28 02:03:12;;;;;;;16.47;8.77;;;-1.70;99.90;;;;;;4172220;28;20324;-45
2021/01/28 02:05:22;;;;;;;18.77;9.00;;;-1.80;99.90;;;;;;4173964;28;20274;-50
2021/01/28 02:07:26;;;;;;;16.75;8.90;;;-1.70;99.90;;;;;;4172749;28;20363;-48
2021/01/28 02:09:28;;;;;;;16.80;8.60;;;-1.80;99.90;;;;;;4173484;28;20052;-46
2021/01/28 02:11:29;;;;;;;18.13;9.00;;;-1.80;99.90;;;;;;4172949;28;20304;-45
2021/01/28 02:13:30;;;;;;;17.93;8.87;;;-1.80;99.90;;;;;;4173686;28;20758;-52
2021/01/28 02:15:31;;;;;;;20.53;9.50;;;-1.70;99.90;;;;;;4173377;28;20324;-43
2021/01/28 02:17:35;;;;;;;16.47;8.43;;;-1.80;99.90;;;;;;4173685;28;20320;-44
2021/01/28 02:19:51;;;;;;;14.93;8.07;;;-1.80;99.90;;;;;;4173087;28;21577;-46
2021/01/28 02:21:52;;;;;;;18.33;8.87;;;-1.80;99.90;;;;;;4173391;28;20749;-51
2021/01/28 02:24:15;;;;;;;14.13;8.03;;;-1.80;99.90;;;;;;4173077;28;20336;-48
2021/01/28 02:26:16;;;;;;;12.93;7.63;;;-1.80;99.90;;;;;;4173542;28;20838;-48
2021/01/28 02:28:19;;;;;;;20.60;9.33;;;-1.80;99.90;;;;;;4171282;28;20274;-45
2021/01/28 02:30:23;;;;;;;15.67;7.93;;;-1.80;99.90;;;;;;4173120;28;20822;-48
2021/01/28 02:32:24;;;;;;;16.73;7.10;;;-1.80;99.90;;;;;;4173107;28;20389;-45
2021/01/28 02:34:26;;;;;;;15.13;8.17;;;-1.80;99.90;;;;;;4172648;28;20288;-48
2021/01/28 02:36:46;;;;;;;15.43;7.40;;;-1.80;99.90;;;;;;4173612;28;20270;-43
2021/01/28 02:38:47;;;;;;;17.50;7.82;;;-1.80;99.90;;;;;;4173212;28;20266;-50
2021/01/28 02:40:48;;;;;;;16.13;8.70;;;-1.80;99.90;;;;;;4173478;28;20080;-47
2021/01/28 02:42:50;;;;;;;15.70;7.67;;;-1.80;99.90;;;;;;4172707;28;20950;-46
2021/01/28 02:44:51;;;;;;;17.10;8.13;;;-1.80;99.90;;;;;;4173312;28;20297;-47
2021/01/28 02:46:52;;;;;;;21.50;8.73;;;-1.80;99.90;;;;;;4172036;28;20274;-43
2021/01/28 02:48:54;;;;;;;14.47;8.13;;;-1.80;99.90;;;;;;4171811;28;20294;-44
2021/01/28 02:50:55;;;;;;;18.37;8.97;;;-1.80;99.90;;;;;;4172525;28;20812;-46
2021/01/28 02:52:58;;;;;;;15.17;8.17;;;-1.80;99.90;;;;;;4173424;28;20274;-46
2021/01/28 02:55:00;;;;;;;17.40;8.53;;;-1.80;99.90;;;;;;4172284;28;20270;-46
2021/01/28 02:57:01;;;;;;;17.80;9.20;;;-1.80;99.90;;;;;;4173169;28;20274;-47
2021/01/28 02:59:04;;;;;;;18.20;9.57;;;-1.80;99.90;;;;;;4172562;28;20320;-47
2021/01/28 03:01:07;;;;;;;16.80;9.13;;;-1.90;99.90;;;;;;4173399;28;20827;-50
2021/01/28 03:03:13;;;;;;;21.00;10.50;;;-1.80;99.90;;;;;;4172861;28;20271;-47
2021/01/28 03:05:14;;;;;;;17.63;8.90;;;-1.80;99.90;;;;;;4173041;28;20782;-44
2021/01/28 03:07:16;;;;;;;17.10;9.03;;;-1.80;99.90;;;;;;4172794;28;20270;-43
2021/01/28 03:09:17;;;;;;;16.97;8.93;;;-1.90;99.90;;;;;;4172307;28;20293;-42
2021/01/28 03:11:19;;;;;;;18.43;9.00;;;-1.90;99.90;;;;;;4172652;28;20372;-45
2021/01/28 03:13:22;;;;;;;18.70;9.40;;;-1.90;99.90;;;;;;4172280;28;20286;-46
2021/01/28 03:15:25;;;;;;;14.73;8.70;;;-1.90;99.90;;;;;;4173254;28;20278;-47
2021/01/28 03:17:26;;;;;;;16.07;9.20;;;-1.90;99.90;;;;;;4172043;28;20278;-49
2021/01/28 03:19:28;;;;;;;17.97;8.80;;;-1.90;99.90;;;;;;4172913;28;20685;-46
2021/01/28 03:21:29;;;;;;;16.40;8.93;;;-1.90;99.90;;;;;;4171954;28;20270;-45
2021/01/28 03:23:30;;;;;;;17.57;8.87;;;-1.90;99.90;;;;;;4173679;28;20336;-45
2021/01/28 03:25:32;;;;;;;18.50;8.67;;;-1.90;99.90;;;;;;4170651;28;20305;-45
2021/01/28 03:27:34;;;;;;;16.97;9.23;;;-1.90;99.90;;;;;;4173581;28;20282;-52
2021/01/28 03:29:35;;;;;;;14.83;8.33;;;-1.90;99.90;;;;;;4169930;28;20293;-44
2021/01/28 03:31:37;;;;;;;17.67;9.47;;;-1.90;99.90;;;;;;4172783;28;20266;-50
2021/01/28 03:33:38;;;;;;;14.63;8.17;;;-2.00;99.90;;;;;;4171802;28;20309;-46
2021/01/28 03:35:40;;;;;;;15.73;7.93;;;-1.90;99.90;;;;;;4172521;28;20336;-52
2021/01/28 03:37:41;;;;;;;20.10;9.43;;;-1.90;99.90;;;;;;4172278;28;20759;-48
2021/01/28 03:39:42;;;;;;;15.67;8.07;;;-1.90;99.90;;;;;;4172416;28;20608;-45
2021/01/28 03:41:44;;;;;;;16.47;8.73;;;-2.00;99.90;;;;;;4172581;28;20320;-44
2021/01/28 03:43:45;;;;;;;16.93;8.80;;;-1.90;99.90;;;;;;4171904;28;20282;-44
2021/01/28 03:45:46;;;;;;;21.27;9.40;;;-1.90;99.90;;;;;;4172462;28;21064;-46
2021/01/28 03:47:48;;;;;;;17.00;8.97;;;-1.90;99.90;;;;;;4171584;28;20750;-49
2021/01/28 03:49:49;;;;;;;15.37;8.13;;;-1.90;99.90;;;;;;4172600;28;20309;-45
2021/01/28 03:51:50;;;;;;;18.93;8.67;;;-1.90;99.90;;;;;;4171731;28;20262;-49
2021/01/28 03:53:51;;;;;;;19.00;8.60;;;-1.90;99.90;;;;;;4173202;28;20278;-44
2021/01/28 03:55:53;;;;;;;18.50;8.83;;;-1.90;99.90;;;;;;4171644;28;20274;-48
2021/01/28 03:57:54;;;;;;;17.10;9.00;;;-1.90;99.90;;;;;;4173239;28;20343;-44
2021/01/28 03:59:56;;;;;;;17.67;8.27;;;-1.90;99.90;;;;;;4171585;28;20262;-47
2021/01/28 04:01:57;;;;;;;18.63;9.20;;;-1.90;99.90;;;;;;4172248;28;20331;-51
2021/01/28 04:03:58;;;;;;;16.23;8.67;;;-1.90;99.90;;;;;;4171037;28;20343;-47
2021/01/28 04:05:59;;;;;;;15.60;7.80;;;-1.90;99.90;;;;;;4172124;28;20274;-45
2021/01/28 04:08:00;;;;;;;17.70;8.87;;;-1.90;99.90;;;;;;4171553;28;20254;-49
2021/01/28 04:10:04;;;;;;;16.80;9.07;;;-1.90;99.90;;;;;;4171671;28;20320;-53
2021/01/28 04:12:06;;;;;;;14.37;8.10;;;-1.90;99.90;;;;;;4171872;28;20312;-49
2021/01/28 04:14:07;;;;;;;15.07;7.47;;;-1.90;99.90;;;;;;4171495;28;20266;-47
2021/01/28 04:16:09;;;;;;;15.63;7.67;;;-1.80;99.90;;;;;;4171814;28;20262;-46
2021/01/28 04:18:10;;;;;;;17.70;8.03;;;-1.80;99.90;;;;;;4172000;28;20324;-45
2021/01/28 04:20:13;;;;;;;18.77;8.50;;;-1.70;99.90;;;;;;4172586;28;20657;-52
2021/01/28 04:22:15;;;;;;;15.43;8.03;;;-1.60;99.90;;;;;;4170470;28;20328;-45
2021/01/28 04:24:16;;;;;;;18.43;8.37;;;-1.60;99.90;;;;;;4172679;28;20274;-48
2021/01/28 04:26:17;;;;;;;18.03;8.93;;;-1.50;99.90;;;;;;4173287;28;20649;-54
2021/01/28 04:28:19;;;;;;;14.03;7.60;;;-1.40;99.90;;;;;;4175954;28;20262;-47
2021/01/28 04:30:29;;;;;;;15.00;8.03;;;-1.50;99.90;;;;;;4174227;28;20293;-47
2021/01/28 04:32:30;;;;;;;17.23;8.45;;;-1.50;99.90;;;;;;4175371;28;20327;-48
2021/01/28 04:34:31;;;;;;;14.17;7.30;;;-1.60;99.90;;;;;;4174358;28;20075;-42
2021/01/28 04:36:32;;;;;;;14.17;7.27;;;-1.70;99.90;;;;;;4174947;28;20266;-47
2021/01/28 04:38:34;;;;;;;17.73;8.10;;;-1.70;99.90;;;;;;4173720;28;20840;-43
2021/01/28 04:40:39;;;;;;;13.03;7.37;;;-1.80;99.90;;;;;;4175106;28;20308;-45
2021/01/28 04:42:43;;;;;;;14.77;7.47;;;-1.80;99.90;;;;;;4174259;28;20262;-45
2021/01/28 04:44:46;;;;;;;14.53;7.10;;;-1.80;99.90;;;;;;4174973;28;20327;-54
2021/01/28 04:46:53;;;;;;;15.93;7.80;;;-1.80;99.90;;;;;;4173260;28;20289;-44
2021/01/28 04:48:56;;;;;;;19.53;7.57;;;-1.80;99.90;;;;;;4173232;28;21180;-46
2021/01/28 04:50:59;;;;;;;16.97;8.00;;;-1.80;99.90;;;;;;4174685;28;20274;-48
2021/01/28 04:53:07;;;;;;;15.70;7.70;;;-1.80;99.90;;;;;;4174655;28;20320;-47
2021/01/28 04:55:13;;;;;;;15.07;7.43;;;-1.80;99.90;;;;;;4175156;28;20258;-44
2021/01/28 04:57:15;;;;;;;14.97;7.13;;;-1.80;99.90;;;;;;4174324;28;20262;-48
2021/01/28 04:59:26;;;;;;;14.17;8.03;;;-1.80;99.90;;;;;;4175112;28;20320;-49
2021/01/28 05:01:29;;;;;;;13.67;7.33;;;-1.80;99.90;;;;;;4173603;28;20282;-44
2021/01/28 05:03:35;;;;;;;14.27;6.90;;;-1.80;99.90;;;;;;4174804;28;20278;-50
2021/01/28 05:05:37;;;;;;;16.27;7.97;;;-1.90;99.90;;;;;;4173870;28;20282;-46
2021/01/28 05:07:40;;;;;;;15.27;7.43;;;-1.80;99.90;;;;;;4175110;28;20327;-45
2021/01/28 05:09:42;;;;;;;16.37;7.57;;;-1.80;99.90;;;;;;4173833;28;20306;-49
2021/01/28 05:11:51;;;;;;;13.37;7.30;;;-1.80;99.90;;;;;;4174367;28;20331;-45
2021/01/28 05:13:53;;;;;;;14.80;6.83;;;-1.80;99.90;;;;;;4173637;28;21119;-45
2021/01/28 05:15:55;;;;;;;20.73;8.00;;;-1.80;99.90;;;;;;4174238;28;21274;-44
2021/01/28 05:17:58;;;;;;;17.30;7.87;;;-1.90;99.90;;;;;;4173647;28;20274;-56
2021/01/28 05:20:00;;;;;;;17.60;8.03;;;-1.80;99.90;;;;;;4174460;28;20332;-46
2021/01/28 05:22:15;;;;;;;19.63;8.63;;;-1.80;99.90;;;;;;4173723;28;20282;-52
2021/01/28 05:24:31;;;;;;;15.23;7.40;;;-1.80;99.90;;;;;;4173020;28;20279;-52
2021/01/28 05:26:39;;;;;;;18.50;9.13;;;-1.80;99.90;;;;;;4173241;28;20277;-53
2021/01/28 05:28:41;;;;;;;19.50;8.80;;;-1.80;99.90;;;;;;4175087;28;20266;-50
2021/01/28 05:30:44;;;;;;;19.30;7.63;;;-1.90;99.90;;;;;;4173284;28;20294;-49
2021/01/28 05:32:48;;;;;;;15.33;7.90;;;-1.80;99.90;;;;;;4173902;28;20404;-46
2021/01/28 05:34:49;;;;;;;14.50;6.87;;;-1.80;99.90;;;;;;4173167;28;20670;-47
2021/01/28 05:36:55;;;;;;;16.07;7.57;;;-1.80;99.90;;;;;;4173727;28;20332;-48
2021/01/28 05:38:57;;;;;;;15.70;8.00;;;-1.90;99.90;;;;;;4172628;28;20358;-48
2021/01/28 05:41:00;;;;;;;20.70;11.23;;;-1.90;99.90;;;;;;4173641;28;20274;-46
2021/01/28 05:43:02;;;;;;;21.60;10.27;;;-1.90;99.90;;;;;;4173490;28;20289;-49
2021/01/28 05:45:24;;;;;;;20.97;11.30;;;-1.90;99.90;;;;;;4173017;28;20340;-46
2021/01/28 05:47:30;;;;;;;41.07;18.30;;;-1.90;99.90;;;;;;4173646;28;20258;-49
2021/01/28 05:49:34;;;;;;;58.23;28.77;;;-1.90;99.90;;;;;;4173464;28;20344;-46
2021/01/28 05:51:43;;;;;;;48.97;25.47;;;-1.90;99.90;;;;;;4174149;28;20259;-48
2021/01/28 05:53:59;;;;;;;32.47;18.63;;;-1.90;99.90;;;;;;4173058;28;20375;-48
2021/01/28 05:56:03;;;;;;;23.27;13.87;;;-1.90;99.90;;;;;;4171844;28;20297;-47
2021/01/28 05:58:22;;;;;;;22.67;11.27;;;-1.90;99.90;;;;;;4173696;28;20270;-46
2021/01/28 06:00:38;;;;;;;20.20;10.50;;;-1.90;99.90;;;;;;4173471;28;20262;-46
2021/01/28 06:03:13;;;;;;;20.37;10.23;;;-1.80;99.90;;;;;;4174039;28;20336;-50
2021/01/28 06:05:52;;;;;;;21.57;10.83;;;-1.90;99.90;;;;;;4173232;28;20364;-45
2021/01/28 06:08:16;;;;;;;21.07;9.87;;;-1.90;99.90;;;;;;4173230;28;20623;-49
2021/01/28 06:10:52;;;;;;;21.27;10.83;;;-1.80;99.90;;;;;;4163652;28;20302;-48
2021/01/28 06:13:06;;;;;;;20.40;10.23;;;-1.90;99.90;;;;;;4150584;28;20301;-45
2021/01/28 06:15:16;;;;;;;19.77;10.20;;;-1.90;99.90;;;;;;4172510;28;20312;-51
2021/01/28 06:17:29;;;;;;;19.65;10.13;;;-1.80;99.90;;;;;;4173846;28;20274;-48
2021/01/28 06:19:49;;;;;;;21.13;9.70;;;-1.90;99.90;;;;;;4170717;28;20123;-48
2021/01/28 06:21:55;;;;;;;21.80;9.80;;;-1.80;99.90;;;;;;4172472;28;20320;-47
2021/01/28 06:24:04;;;;;;;26.27;10.20;;;-1.90;99.90;;;;;;4172587;28;20571;-49
2021/01/28 06:26:29;;;;;;;20.83;10.20;;;-1.80;99.90;;;;;;4172859;28;20729;-47
2021/01/28 06:28:48;;;;;;;31.07;13.00;;;-1.80;99.90;;;;;;4173583;28;20258;-55
2021/01/28 06:31:05;;;;;;;18.73;10.17;;;-1.80;99.90;;;;;;4172590;28;20623;-50
2021/01/28 06:33:15;;;;;;;23.70;11.80;;;-1.80;99.90;;;;;;4173070;28;20312;-47
2021/01/28 06:35:42;;;;;;;22.95;11.93;;;-1.80;99.90;;;;;;4172685;28;20278;-48
2021/01/28 06:38:11;;;;;;;22.67;11.77;;;-1.80;99.90;;;;;;4152730;28;20183;-48
2021/01/28 06:40:18;;;;;;;29.90;12.33;;;-1.80;99.90;;;;;;4171417;28;20324;-52
2021/01/28 06:42:45;;;;;;;26.43;11.87;;;-1.80;99.90;;;;;;4172811;28;20282;-47
2021/01/28 06:45:02;;;;;;;26.63;12.27;;;-1.80;99.90;;;;;;4172316;28;20274;-49
2021/01/28 06:47:20;;;;;;;24.90;12.57;;;-1.80;99.90;;;;;;4173387;28;20278;-50
2021/01/28 06:49:40;;;;;;;23.17;11.63;;;-1.80;99.90;;;;;;4171670;28;20336;-54
2021/01/28 06:51:49;;;;;;;27.52;12.65;;;-1.80;99.90;;;;;;4172690;28;20359;-50
2021/01/28 06:54:06;;;;;;;23.33;10.87;;;-1.80;99.90;;;;;;4172014;28;20567;-56
2021/01/28 06:56:26;;;;;;;21.77;11.87;;;-1.80;99.90;;;;;;4172654;28;20758;-51
2021/01/28 06:58:43;;;;;;;32.60;14.93;;;-1.70;99.90;;;;;;4172275;28;20332;-46
2021/01/28 07:00:53;;;;;;;31.63;14.10;;;-1.70;99.90;;;;;;4172159;28;20281;-47
2021/01/28 07:03:28;;;;;;;28.52;16.58;;;-1.70;99.90;;;;;;4171925;28;20855;-48
2021/01/28 07:05:39;;;;;;;31.93;16.10;;;-1.70;99.90;;;;;;4171711;28;20041;-49
2021/01/28 07:08:24;;;;;;;32.80;17.50;;;-1.70;99.90;;;;;;4172503;28;20335;-55
2021/01/28 07:10:37;;;;;;;36.30;17.70;;;-1.60;99.90;;;;;;4151949;28;20294;-52
2021/01/28 07:12:44;;;;;;;40.73;18.47;;;-1.50;99.90;;;;;;4172265;28;20336;-49
2021/01/28 07:14:50;;;;;;;34.50;16.57;;;-1.40;99.90;;;;;;4171409;28;20278;-47
2021/01/28 07:17:36;;;;;;;45.83;24.00;;;-1.40;99.90;;;;;;4173097;28;20758;-51
2021/01/28 07:19:59;;;;;;;46.20;22.70;;;-1.40;99.90;;;;;;4136551;28;20333;-49
2021/01/28 07:22:48;;;;;;;50.00;24.67;;;-1.40;99.90;;;;;;4161985;28;21359;-52
2021/01/28 07:24:49;;;;;;;47.27;22.87;;;-1.40;99.90;;;;;;4163155;28;20336;-54
2021/01/28 07:27:12;;;;;;;46.60;20.93;;;-1.40;99.90;;;;;;4172106;28;20324;-46
2021/01/28 07:29:31;;;;;;;37.00;17.57;;;-1.30;99.90;;;;;;4172477;28;20721;-55
2021/01/28 07:31:46;;;;;;;41.67;18.20;;;-1.30;99.90;;;;;;4171234;28;20286;-47
2021/01/28 07:34:12;;;;;;;27.90;13.90;;;-1.30;99.90;;;;;;4172518;28;20270;-51
2021/01/28 07:36:25;;;;;;;25.83;12.60;;;-1.30;99.90;;;;;;4171599;28;20808;-55
2021/01/28 07:38:32;;;;;;;30.73;13.80;;;-1.30;99.90;;;;;;4173005;28;20339;-53
2021/01/28 07:40:55;;;;;;;22.13;12.10;;;-1.20;99.90;;;;;;4171191;28;20665;-49
2021/01/28 07:43:05;;;;;;;28.17;12.70;;;-1.20;99.90;;;;;;4172792;28;20301;-48
2021/01/28 07:45:33;;;;;;;19.23;11.25;;;-1.20;99.90;;;;;;4171725;28;20266;-48
2021/01/28 07:47:34;;;;;;;23.53;11.73;;;-1.30;99.90;;;;;;4172425;28;20036;-50
2021/01/28 07:49:36;;;;;;;18.67;10.30;;;-1.30;99.90;;;;;;4171640;28;20262;-51
2021/01/28 07:51:39;;;;;;;28.20;13.73;;;-1.20;99.90;;;;;;4172915;28;20755;-51
2021/01/28 07:53:50;;;;;;;24.70;11.47;;;-1.30;99.90;;;;;;4171640;28;20328;-49
2021/01/28 07:55:51;;;;;;;19.63;9.73;;;-1.20;99.90;;;;;;4172441;28;20274;-50
2021/01/28 07:57:54;;;;;;;21.17;9.67;;;-1.30;99.90;;;;;;4171223;28;20293;-53
2021/01/28 08:00:08;;;;;;;19.57;9.17;;;-1.40;99.90;;;;;;4173767;28;20261;-49
2021/01/28 08:02:16;;;;;;;16.73;8.60;;;-1.40;99.90;;;;;;4174405;28;21002;-45
2021/01/28 08:04:28;;;;;;;23.07;10.67;;;-1.40;99.90;;;;;;4176032;28;20333;-48
2021/01/28 08:06:32;;;;;;;20.13;10.07;;;-1.40;99.90;;;;;;4175258;28;20612;-47
2021/01/28 08:08:33;;;;;;;18.77;9.27;;;-1.50;99.90;;;;;;4176108;28;20758;-49
2021/01/28 08:10:40;;;;;;;22.87;9.63;;;-1.50;99.90;;;;;;4174722;28;20383;-52
2021/01/28 08:12:50;;;;;;;17.10;8.33;;;-1.40;99.90;;;;;;4175202;28;20282;-47
2021/01/28 08:14:53;;;;;;;24.70;10.27;;;-1.40;99.90;;;;;;4174126;28;20870;-49
2021/01/28 08:16:56;;;;;;;15.93;8.53;;;-1.40;99.90;;;;;;4175465;28;20391;-50
2021/01/28 08:19:20;;;;;;;14.83;7.10;;;-1.40;99.90;;;;;;4174013;28;20290;-46
2021/01/28 08:21:28;;;;;;;15.10;7.10;;;-1.40;99.90;;;;;;4175173;28;20296;-50
2021/01/28 08:23:29;;;;;;;15.77;7.80;;;-1.40;99.90;;;;;;4173796;28;20324;-48
2021/01/28 08:25:36;;;;;;;19.97;8.83;;;-1.40;99.90;;;;;;4175305;28;20666;-46
2021/01/28 08:27:39;;;;;;;20.67;9.50;;;-1.30;99.90;;;;;;4174412;28;20670;-45
2021/01/28 08:29:40;;;;;;;27.90;13.77;;;-1.30;99.90;;;;;;4175028;28;20281;-50
2021/01/28 08:31:44;;;;;;;21.23;10.73;;;-1.20;99.90;;;;;;4174636;28;20297;-50
2021/01/28 08:33:48;;;;;;;17.13;8.60;;;-1.10;99.90;;;;;;4174281;28;20715;-50
2021/01/28 08:35:53;;;;;;;19.53;8.87;;;-1.10;99.90;;;;;;4175115;28;20785;-46
2021/01/28 08:38:13;;;;;;;18.37;8.40;;;-1.10;99.90;;;;;;4174435;28;20301;-50
2021/01/28 08:40:21;;;;;;;12.80;6.68;;;-1.00;99.90;;;;;;4174692;28;20262;-48
2021/01/28 08:42:24;;;;;;;15.73;6.33;;;-1.00;99.90;;;;;;4174213;28;20049;-48
2021/01/28 08:44:25;;;;;;;15.47;7.30;;;-1.00;99.90;;;;;;4174740;28;20320;-50
2021/01/28 08:46:27;;;;;;;14.77;6.97;;;-1.00;99.90;;;;;;4174072;28;20254;-45
2021/01/28 08:48:28;;;;;;;19.47;7.43;;;-1.00;99.90;;;;;;4174364;28;20286;-49
2021/01/28 08:50:30;;;;;;;11.80;6.07;;;-1.00;99.90;;;;;;4173718;28;20340;-50
2021/01/28 08:52:33;;;;;;;17.17;7.87;;;-1.00;99.90;;;;;;4174773;28;20313;-45
2021/01/28 08:54:40;;;;;;;14.93;7.70;;;-0.90;99.90;;;;;;4173768;28;20328;-47
2021/01/28 08:56:41;;;;;;;23.13;8.27;;;-0.90;99.90;;;;;;4174534;28;20766;-49
2021/01/28 08:58:43;;;;;;;15.33;8.97;;;-0.80;99.90;;;;;;4173880;28;20742;-49
2021/01/28 09:00:48;;;;;;;18.53;7.93;;;-0.80;99.90;;;;;;4174530;28;20617;-49
2021/01/28 09:02:52;;;;;;;14.83;7.43;;;-0.70;99.90;;;;;;4172777;28;20274;-50
2021/01/28 09:05:02;;;;;;;15.03;7.13;;;-0.70;99.90;;;;;;4174270;28;20266;-49
2021/01/28 09:07:04;;;;;;;15.38;6.38;;;-0.70;99.90;;;;;;4171819;28;20274;-49
2021/01/28 09:09:19;;;;;;;15.53;6.57;;;-0.70;99.90;;;;;;4173722;28;20045;-50
2021/01/28 09:11:29;;;;;;;23.43;8.03;;;-0.60;99.90;;;;;;4172265;28;20294;-48
2021/01/28 09:13:30;;;;;;;15.63;7.27;;;-0.60;99.90;;;;;;4174270;28;20343;-50
2021/01/28 09:15:31;;;;;;;13.27;5.50;;;-0.50;99.90;;;;;;4173288;28;20919;-50
2021/01/28 09:17:32;;;;;;;17.90;6.47;;;-0.60;99.90;;;;;;4173804;28;20328;-49
2021/01/28 09:19:54;;;;;;;15.30;6.37;;;-0.60;99.90;;;;;;4173024;28;20278;-53
2021/01/28 09:22:30;;;;;;;14.33;6.73;;;-0.60;99.90;;;;;;4174638;28;20282;-48
2021/01/28 09:24:34;;;;;;;9.73;5.70;;;-0.60;99.90;;;;;;4170737;28;20694;-50
2021/01/28 09:26:36;;;;;;;13.23;5.83;;;-0.60;99.90;;;;;;4173931;28;20766;-47
2021/01/28 09:28:38;;;;;;;11.20;6.10;;;-0.60;99.90;;;;;;4173426;28;20824;-48
2021/01/28 09:30:43;;;;;;;15.57;6.03;;;-0.50;99.90;;;;;;4173740;28;20847;-50
2021/01/28 09:32:45;;;;;;;14.37;6.50;;;-0.50;99.90;;;;;;4173366;28;20289;-47
2021/01/28 09:35:01;;;;;;;16.43;6.50;;;-0.40;99.90;;;;;;4174030;28;20746;-50
2021/01/28 09:37:07;;;;;;;12.80;6.50;;;-0.40;99.90;;;;;;4173271;28;20270;-49
2021/01/28 09:39:46;;;;;;;13.53;6.63;;;-0.30;99.90;;;;;;4174288;28;20512;-49
2021/01/28 09:41:51;;;;;;;12.77;6.27;;;-0.30;99.90;;;;;;4172516;28;20639;-47
2021/01/28 09:43:52;;;;;;;16.90;5.47;;;-0.40;99.90;;;;;;4173852;28;20285;-46
2021/01/28 09:46:11;;;;;;;14.67;5.67;;;-0.40;99.90;;;;;;4173188;28;20804;-49
2021/01/28 09:48:12;;;;;;;12.87;5.43;;;-0.40;99.90;;;;;;4173046;28;21015;-50
2021/01/28 09:50:13;;;;;;;14.00;6.30;;;-0.40;99.90;;;;;;4172826;28;20335;-51
2021/01/28 09:52:20;;;;;;;18.77;6.73;;;-0.30;99.90;;;;;;4173313;28;20270;-50
2021/01/28 09:54:24;;;;;;;18.73;7.93;;;-0.30;99.90;;;;;;4172336;28;20266;-46
2021/01/28 09:56:25;;;;;;;15.47;7.17;;;-0.30;99.90;;;;;;4173995;28;20270;-49
2021/01/28 09:58:26;;;;;;;19.23;7.63;;;-0.20;99.90;;;;;;4173213;28;20730;-51
2021/01/28 10:00:28;;;;;;;30.33;13.60;;;-0.10;99.90;;;;;;4173044;28;21038;-49
2021/01/28 10:02:46;;;;;;;28.93;13.33;;;-0.10;99.90;;;;;;4174149;28;20270;-50
2021/01/28 10:04:47;;;;;;;32.07;14.70;;;-0.10;99.90;;;;;;4173668;28;20270;-50
2021/01/28 10:06:48;;;;;;;22.33;10.10;;;0.00;99.90;;;;;;4173642;28;20258;-51
2021/01/28 10:08:50;;;;;;;29.63;12.33;;;0.00;99.90;;;;;;4172853;28;20327;-50
2021/01/28 10:10:51;;;;;;;25.40;12.70;;;0.10;99.90;;;;;;4173697;28;20294;-48
2021/01/28 10:12:54;;;;;;;22.87;11.47;;;0.20;99.90;;;;;;4172402;28;20320;-48
2021/01/28 10:14:56;;;;;;;21.57;10.57;;;0.20;99.90;;;;;;4173965;28;20742;-49
2021/01/28 10:16:57;;;;;;;17.57;8.13;;;0.30;99.90;;;;;;4172403;28;20348;-48
2021/01/28 10:18:59;;;;;;;15.13;8.03;;;0.30;99.90;;;;;;4173832;28;20331;-45
2021/01/28 10:21:01;;;;;;;9.93;6.03;;;0.30;99.90;;;;;;4172267;28;20320;-50
2021/01/28 10:23:04;;;;;;;8.43;5.30;;;0.20;99.90;;;;;;4172842;28;20274;-50
2021/01/28 10:25:07;;;;;;;12.87;5.57;;;0.20;99.90;;;;;;4172308;28;20419;-45
2021/01/28 10:27:09;;;;;;;11.47;5.50;;;0.20;99.90;;;;;;4173623;28;20328;-49
2021/01/28 10:29:10;;;;;;;11.37;6.33;;;0.20;99.90;;;;;;4172706;28;20320;-49
2021/01/28 10:31:11;;;;;;;17.20;7.33;;;0.10;99.90;;;;;;4172886;28;20308;-52
2021/01/28 10:33:13;;;;;;;14.07;7.47;;;0.10;99.90;;;;;;4172446;28;20315;-47
2021/01/28 10:35:17;;;;;;;12.33;5.10;;;0.10;99.90;;;;;;4172852;28;20278;-47
2021/01/28 10:37:19;;;;;;;17.50;7.03;;;0.20;99.90;;;;;;4171915;28;20255;-50
2021/01/28 10:39:21;;;;;;;16.37;7.70;;;0.20;99.60;;;;;;4172140;28;20274;-53
2021/01/28 10:41:22;;;;;;;14.10;6.43;;;0.30;99.00;;;;;;4172450;28;20277;-50
2021/01/28 10:43:23;;;;;;;14.33;7.10;;;0.30;98.90;;;;;;4171780;28;20880;-48
2021/01/28 10:45:28;;;;;;;10.20;4.97;;;0.40;99.20;;;;;;4172668;28;20332;-50
2021/01/28 10:47:29;;;;;;;25.23;5.37;;;0.40;98.70;;;;;;4171496;28;20278;-52